Time;durP1;ratioP1;P1;durP2;ratioP2;P2;SDS_P1;SDS_P2;PMS_P1;PMS_P2;Temp;Humidity;BMP_temperature;BMP_pressure;BME280_temperature;BME280_humidity;BME280_pressure;Samples;Min_cycle;Max_cycle;Signal;HPM_P1;HPM_P2
2022/09/01 01:14:10;;;;;;;;;;;21.70;88.70;;;;;;5392550;24;20027;-96
2022/09/01 01:16:45;;;;;;;;;;;21.70;88.80;;;;;;4850337;29;19992;-96
2022/09/01 01:25:11;;;;;;;;;;;21.70;88.50;;;;;;4852676;29;19938;-96
2022/09/01 01:27:42;;;;;;;;;;;21.70;88.90;;;;;;4864981;29;19974;-96
2022/09/01 01:30:11;;;;;;;;;;;21.70;88.90;;;;;;4850331;29;19949;-96
2022/09/01 01:32:46;;;;;;;;;;;21.50;89.20;;;;;;4846225;29;20008;-96
2022/09/01 01:35:20;;;;;;;;;;;21.50;89.40;;;;;;4849972;29;19954;-96
2022/09/01 01:37:49;;;;;;;;;;;21.50;89.50;;;;;;4849482;29;19945;-96
2022/09/01 01:40:20;;;;;;;;;;;21.50;89.70;;;;;;4849714;29;19930;-96
2022/09/01 01:42:54;;;;;;;;;;;21.50;89.60;;;;;;4864829;29;19940;-96
2022/09/01 01:45:25;;;;;;;;;;;21.50;89.90;;;;;;4865014;29;19953;-96
2022/09/01 01:47:54;;;;;;;;;;;21.60;89.90;;;;;;4849827;29;19947;-96
2022/09/01 01:50:34;;;;;;;;;;;21.50;89.80;;;;;;4849893;29;19966;-96
2022/09/01 01:53:04;;;;;;;;;;;21.50;89.70;;;;;;4834794;29;19959;-96
2022/09/01 01:55:35;;;;;;;;;;;21.50;89.40;;;;;;4865450;29;20014;-96
2022/09/01 01:58:10;;;;;;;;;;;21.50;89.30;;;;;;4849850;29;19954;-96
2022/09/01 02:00:38;;;;;;;;;;;21.50;89.20;;;;;;4849929;29;19944;-96
2022/09/01 02:03:11;;;;;;;;;;;21.60;89.00;;;;;;4848413;29;19931;-96
2022/09/01 02:05:38;;;;;;;;;;;21.60;88.70;;;;;;4865147;29;19979;-96
2022/09/01 02:08:07;;;;;;;;;;;21.60;88.70;;;;;;4847583;29;19987;-96
2022/09/01 02:10:39;;;;;;;;;;;21.60;88.70;;;;;;4864030;29;19967;-96
2022/09/01 02:13:10;;;;;;;;;;;21.70;88.30;;;;;;4849531;29;19935;-96
2022/09/01 02:15:46;;;;;;;;;;;21.70;88.20;;;;;;4850280;29;19981;-96
2022/09/01 02:18:22;;;;;;;;;;;21.70;87.90;;;;;;4846797;29;19951;-96
2022/09/01 02:20:57;;;;;;;;;;;21.60;87.60;;;;;;4850182;29;19936;-96
2022/09/01 02:23:26;;;;;;;;;;;21.60;87.40;;;;;;4853147;29;19949;-96
2022/09/01 02:25:55;;;;;;;;;;;21.60;87.10;;;;;;4838201;29;19963;-96
2022/09/01 02:28:34;;;;;;;;;;;21.60;86.80;;;;;;4869399;29;19957;-96
2022/09/01 02:31:04;;;;;;;;;;;21.70;86.20;;;;;;4852620;29;19977;-96
2022/09/01 02:33:44;;;;;;;;;;;21.60;85.70;;;;;;4835766;29;20001;-96
2022/09/01 02:36:20;;;;;;;;;;;21.70;85.30;;;;;;4869300;29;19974;-96
2022/09/01 02:38:50;;;;;;;;;;;21.70;84.60;;;;;;4853394;29;19954;-96
2022/09/01 02:41:28;;;;;;;;;;;21.80;84.20;;;;;;4848331;29;19979;-96
2022/09/01 02:44:10;;;;;;;;;;;21.80;84.00;;;;;;4854428;29;19930;-96
2022/09/01 02:46:41;;;;;;;;;;;21.80;83.30;;;;;;4852783;29;19944;-96
2022/09/01 02:49:18;;;;;;;;;;;21.80;82.80;;;;;;4853423;29;19949;-96
2022/09/01 02:51:52;;;;;;;;;;;21.80;82.60;;;;;;4869200;29;19952;-96
2022/09/01 02:54:23;;;;;;;;;;;21.80;82.40;;;;;;4852474;29;19931;-96
2022/09/01 02:56:53;;;;;;;;;;;21.80;82.30;;;;;;4849536;29;20008;-96
2022/09/01 02:59:25;;;;;;;;;;;21.80;82.10;;;;;;4852337;29;19936;-96
2022/09/01 03:02:23;;;;;;;;;;;21.90;81.90;;;;;;4866244;29;19935;-96
2022/09/01 03:04:56;;;;;;;;;;;21.90;81.60;;;;;;4852084;29;19945;-96
2022/09/01 03:07:35;;;;;;;;;;;21.90;80.90;;;;;;4851209;29;19945;-96
2022/09/01 03:10:09;;;;;;;;;;;21.90;80.20;;;;;;4852270;29;19953;-96
2022/09/01 03:12:42;;;;;;;;;;;21.90;79.70;;;;;;4852665;29;19930;-96
2022/09/01 03:15:12;;;;;;;;;;;22.00;78.90;;;;;;4837451;29;19972;-96
2022/09/01 03:17:40;;;;;;;;;;;22.00;78.30;;;;;;4852720;29;19978;-96
2022/09/01 03:20:08;;;;;;;;;;;22.00;78.00;;;;;;4851939;29;19933;-96
2022/09/01 03:22:51;;;;;;;;;;;22.00;77.70;;;;;;4868633;29;19937;-96
2022/09/01 03:25:24;;;;;;;;;;;22.00;77.10;;;;;;4853348;29;20010;-96
2022/09/01 03:27:55;;;;;;;;;;;22.10;76.90;;;;;;4835996;29;19987;-96
2022/09/01 03:30:29;;;;;;;;;;;22.10;76.70;;;;;;4850551;29;19950;-96
2022/09/01 03:32:58;;;;;;;;;;;22.20;76.60;;;;;;4837622;29;19949;-96
2022/09/01 03:35:31;;;;;;;;;;;22.20;76.10;;;;;;4822527;29;19996;-96
2022/09/01 03:38:00;;;;;;;;;;;22.20;76.10;;;;;;4851981;29;19929;-96
2022/09/01 03:40:48;;;;;;;;;;;22.10;76.00;;;;;;4867620;29;19946;-96
2022/09/01 03:43:26;;;;;;;;;;;22.10;76.10;;;;;;4868468;29;20391;-96
2022/09/01 03:46:08;;;;;;;;;;;22.00;76.10;;;;;;4868431;29;20400;-96
2022/09/01 03:48:37;;;;;;;;;;;22.00;76.00;;;;;;4852096;29;19948;-96
2022/09/01 03:51:15;;;;;;;;;;;22.00;75.90;;;;;;4862109;29;19972;-96
2022/09/01 03:53:45;;;;;;;;;;;22.00;75.50;;;;;;4837231;29;19978;-96
2022/09/01 03:56:33;;;;;;;;;;;22.00;75.50;;;;;;4836769;29;19972;-96
2022/09/01 03:59:01;;;;;;;;;;;22.00;75.30;;;;;;4837908;29;19953;-96
2022/09/01 04:01:34;;;;;;;;;;;22.00;74.90;;;;;;4850990;29;19930;-96
2022/09/01 04:04:03;;;;;;;;;;;22.00;74.90;;;;;;4868071;29;19963;-96
2022/09/01 04:06:32;;;;;;;;;;;22.00;74.70;;;;;;4852145;29;20014;-96
2022/09/01 04:09:04;;;;;;;;;;;21.90;74.60;;;;;;4851000;29;20002;-96
2022/09/01 04:11:35;;;;;;;;;;;21.90;74.30;;;;;;4848947;29;19928;-96
2022/09/01 04:14:08;;;;;;;;;;;22.00;74.00;;;;;;4836557;29;20013;-96
2022/09/01 04:19:32;;;;;;;;;;;22.00;73.80;;;;;;4867323;29;19947;-96
2022/09/01 04:21:59;;;;;;;;;;;22.00;73.40;;;;;;4850126;29;20008;-96
2022/09/01 04:24:31;;;;;;;;;;;22.10;73.10;;;;;;4850143;29;20009;-96
2022/09/01 04:27:06;;;;;;;;;;;22.00;72.90;;;;;;4851098;29;20011;-96
2022/09/01 04:29:33;;;;;;;;;;;22.00;73.00;;;;;;4866841;29;19954;-96
2022/09/01 04:32:02;;;;;;;;;;;21.90;73.20;;;;;;4849814;29;19946;-96
2022/09/01 04:34:35;;;;;;;;;;;21.80;73.20;;;;;;4850079;29;19978;-96
2022/09/01 04:37:07;;;;;;;;;;;21.80;73.30;;;;;;4850427;29;19989;-96
2022/09/01 04:39:39;;;;;;;;;;;21.80;73.00;;;;;;4865664;29;19951;-96
2022/09/01 04:42:08;;;;;;;;;;;21.80;73.10;;;;;;4851054;29;19943;-96
2022/09/01 04:44:35;;;;;;;;;;;21.80;73.10;;;;;;4835182;29;19956;-96
2022/09/01 04:47:10;;;;;;;;;;;21.80;73.00;;;;;;4848488;29;19952;-96
2022/09/01 04:49:40;;;;;;;;;;;21.70;73.40;;;;;;4850302;29;19952;-96
2022/09/01 04:52:12;;;;;;;;;;;21.70;73.60;;;;;;4866095;29;19953;-96
2022/09/01 04:54:47;;;;;;;;;;;21.70;73.80;;;;;;4865659;29;19996;-96
2022/09/01 04:57:18;;;;;;;;;;;21.60;74.40;;;;;;4832813;29;19973;-96
2022/09/01 04:59:47;;;;;;;;;;;21.70;75.10;;;;;;4849452;29;19963;-96
2022/09/01 05:02:14;;;;;;;;;;;21.60;74.60;;;;;;4847332;29;19956;-96
2022/09/01 05:04:46;;;;;;;;;;;21.60;74.90;;;;;;4865804;29;19974;-96
2022/09/01 05:07:16;;;;;;;;;;;21.70;74.30;;;;;;4848638;29;19983;-96
2022/09/01 05:09:44;;;;;;;;;;;21.70;73.80;;;;;;4844290;29;19950;-96
2022/09/01 05:12:20;;;;;;;;;;;21.70;73.40;;;;;;4866054;29;19981;-96
2022/09/01 05:14:52;;;;;;;;;;;21.70;73.20;;;;;;4864658;29;20034;-96
2022/09/01 05:17:24;;;;;;;;;;;21.80;72.80;;;;;;4848668;29;19976;-96
2022/09/01 05:19:53;;;;;;;;;;;21.80;72.90;;;;;;4847748;29;19949;-96
2022/09/01 05:22:24;;;;;;;;;;;21.80;72.50;;;;;;4863771;29;19968;-96
2022/09/01 05:24:54;;;;;;;;;;;21.80;72.60;;;;;;4848087;29;20013;-96
2022/09/01 05:27:28;;;;;;;;;;;21.80;72.50;;;;;;4845850;29;20016;-96
2022/09/01 05:29:57;;;;;;;;;;;21.80;72.70;;;;;;4847801;29;19947;-96
2022/09/01 05:32:25;;;;;;;;;;;21.80;72.50;;;;;;4850552;29;19991;-96
2022/09/01 05:35:01;;;;;;;;;;;21.90;72.20;;;;;;4864660;29;19972;-96
2022/09/01 05:37:29;;;;;;;;;;;21.90;72.20;;;;;;4849146;29;19965;-96
2022/09/01 05:40:06;;;;;;;;;;;22.00;72.10;;;;;;4848027;29;19932;-96
2022/09/01 05:47:52;;;;;;;;;;;22.30;71.30;;;;;;4883735;24;19982;-96
2022/09/01 05:52:59;;;;;;;;;;;22.40;70.80;;;;;;5031689;24;19972;-96
2022/09/01 05:55:42;;;;;;;;;;;22.50;70.40;;;;;;4868995;29;19990;-96
2022/09/01 05:58:28;;;;;;;;;;;22.50;70.20;;;;;;4878982;29;19955;-96
2022/09/01 06:00:59;;;;;;;;;;;22.60;70.20;;;;;;4852205;29;19947;-96
2022/09/01 06:03:27;;;;;;;;;;;22.50;69.90;;;;;;4867257;29;19940;-96
2022/09/01 06:06:07;;;;;;;;;;;22.60;69.60;;;;;;4864541;29;19955;-96
2022/09/01 06:08:48;;;;;;;;;;;22.70;69.20;;;;;;4864109;29;20398;-96
2022/09/01 06:11:18;;;;;;;;;;;22.70;69.30;;;;;;4882468;29;19991;-97
2022/09/01 06:13:46;;;;;;;;;;;22.70;68.90;;;;;;4866034;29;19952;-96
2022/09/01 06:16:14;;;;;;;;;;;22.80;69.00;;;;;;4866258;29;19973;-96
2022/09/01 06:18:42;;;;;;;;;;;22.80;68.30;;;;;;4865064;29;19980;-96
2022/09/01 06:21:13;;;;;;;;;;;22.90;68.10;;;;;;4865673;29;19953;-96
2022/09/01 06:23:44;;;;;;;;;;;23.00;67.80;;;;;;4866006;29;20001;-96
2022/09/01 06:26:37;;;;;;;;;;;23.00;67.40;;;;;;4883466;29;20047;-96
2022/09/01 06:29:18;;;;;;;;;;;23.00;67.70;;;;;;4882452;29;19946;-96
2022/09/01 06:31:50;;;;;;;;;;;23.10;67.30;;;;;;4867467;29;19949;-96
2022/09/01 06:34:24;;;;;;;;;;;23.20;67.50;;;;;;4867965;29;19955;-96
2022/09/01 06:36:56;;;;;;;;;;;23.20;67.10;;;;;;4866635;29;19959;-96
2022/09/01 06:39:25;;;;;;;;;;;23.20;67.30;;;;;;4867298;29;19950;-96
2022/09/01 06:42:01;;;;;;;;;;;23.30;67.20;;;;;;4867654;29;19990;-96
2022/09/01 06:44:55;;;;;;;;;;;23.30;66.80;;;;;;4871288;29;19959;-96
2022/09/01 06:47:30;;;;;;;;;;;23.40;66.60;;;;;;4878593;29;19954;-96
2022/09/01 06:50:00;;;;;;;;;;;23.50;66.80;;;;;;4864504;29;20021;-96
2022/09/01 06:53:00;;;;;;;;;;;23.50;66.40;;;;;;4884616;29;19967;-96
2022/09/01 06:55:36;;;;;;;;;;;23.60;66.00;;;;;;4882445;29;19993;-96
2022/09/01 06:58:10;;;;;;;;;;;23.60;65.70;;;;;;4866589;29;19948;-96
2022/09/01 07:00:42;;;;;;;;;;;23.70;65.50;;;;;;4884346;29;19944;-96
2022/09/01 07:03:28;;;;;;;;;;;23.70;65.20;;;;;;4868404;29;19946;-96
2022/09/01 07:06:08;;;;;;;;;;;23.70;64.70;;;;;;4877833;29;19991;-96
2022/09/01 07:08:40;;;;;;;;;;;23.70;65.00;;;;;;4851543;29;19955;-96
2022/09/01 07:11:08;;;;;;;;;;;23.80;64.50;;;;;;4869746;29;19970;-96
2022/09/01 07:13:38;;;;;;;;;;;23.80;64.50;;;;;;4885645;29;19961;-97
2022/09/01 07:16:05;;;;;;;;;;;23.90;64.10;;;;;;4869452;29;19970;-96
2022/09/01 07:18:31;;;;;;;;;;;23.90;64.40;;;;;;4863884;29;19948;-96
2022/09/01 07:21:06;;;;;;;;;;;24.00;64.40;;;;;;4883906;29;19956;-96
2022/09/01 07:23:42;;;;;;;;;;;24.00;63.80;;;;;;4866472;29;20331;-96
2022/09/01 07:26:09;;;;;;;;;;;24.10;63.70;;;;;;4865379;29;20020;-96
2022/09/01 07:28:40;;;;;;;;;;;24.20;63.80;;;;;;4867410;29;19951;-96
2022/09/01 07:31:09;;;;;;;;;;;24.30;62.90;;;;;;4881901;29;19960;-96
2022/09/01 07:33:35;;;;;;;;;;;24.30;62.40;;;;;;4867260;29;19954;-96
2022/09/01 07:36:03;;;;;;;;;;;24.30;62.60;;;;;;4865605;29;19969;-97
2022/09/01 07:38:29;;;;;;;;;;;24.40;62.40;;;;;;4864628;29;19996;-96
2022/09/01 07:40:56;;;;;;;;;;;24.50;62.20;;;;;;4868407;29;19974;-96
2022/09/01 07:43:27;;;;;;;;;;;24.60;61.70;;;;;;4861064;29;19960;-96
2022/09/01 07:45:56;;;;;;;;;;;24.60;61.30;;;;;;4864305;29;19952;-96
2022/09/01 07:48:23;;;;;;;;;;;24.80;61.30;;;;;;4866031;29;19980;-96
2022/09/01 07:50:51;;;;;;;;;;;25.00;60.70;;;;;;4874637;29;19943;-96
2022/09/01 07:53:22;;;;;;;;;;;25.10;60.30;;;;;;4876662;29;19977;-96
2022/09/01 07:55:53;;;;;;;;;;;25.30;59.80;;;;;;4863262;29;20023;-96
2022/09/01 07:58:20;;;;;;;;;;;25.40;60.40;;;;;;4857819;29;19949;-96
2022/09/01 08:00:48;;;;;;;;;;;25.50;59.80;;;;;;4874131;29;19952;-96
2022/09/01 08:03:15;;;;;;;;;;;25.60;59.20;;;;;;4862421;29;19953;-96
2022/09/01 08:05:42;;;;;;;;;;;25.50;57.60;;;;;;4874142;29;19969;-96
2022/09/01 08:08:08;;;;;;;;;;;25.30;57.80;;;;;;4854497;29;19953;-96
2022/09/01 08:10:37;;;;;;;;;;;25.30;58.40;;;;;;4855722;29;19951;-96
2022/09/01 08:13:03;;;;;;;;;;;25.20;58.60;;;;;;4874873;29;19955;-96
2022/09/01 08:15:29;;;;;;;;;;;25.10;58.70;;;;;;4861565;29;19931;-96
2022/09/01 08:17:55;;;;;;;;;;;25.00;58.40;;;;;;4875730;29;19999;-96
2022/09/01 08:20:21;;;;;;;;;;;25.10;58.90;;;;;;4860125;29;19952;-96
2022/09/01 08:22:53;;;;;;;;;;;25.10;59.00;;;;;;4861470;29;19948;-96
2022/09/01 08:25:19;;;;;;;;;;;25.10;59.10;;;;;;4861008;29;19956;-96
2022/09/01 08:27:46;;;;;;;;;;;25.20;59.30;;;;;;4842747;29;20425;-96
2022/09/01 08:30:12;;;;;;;;;;;25.20;58.80;;;;;;4874197;29;20345;-96
2022/09/01 08:32:41;;;;;;;;;;;25.20;58.70;;;;;;4860625;29;19963;-96
2022/09/01 08:35:15;;;;;;;;;;;25.30;59.30;;;;;;4882589;29;19973;-96
2022/09/01 08:37:43;;;;;;;;;;;25.40;59.30;;;;;;4851444;29;19962;-96
2022/09/01 08:40:12;;;;;;;;;;;25.50;58.00;;;;;;4864258;29;19968;-96
2022/09/01 08:42:52;;;;;;;;;;;25.50;58.50;;;;;;4879983;29;19943;-96
2022/09/01 08:45:23;;;;;;;;;;;25.60;57.60;;;;;;4878815;29;19970;-96
2022/09/01 08:47:56;;;;;;;;;;;25.70;57.30;;;;;;4880132;29;19944;-96
2022/09/01 08:50:23;;;;;;;;;;;25.80;57.40;;;;;;4860650;29;19947;-96
2022/09/01 08:52:54;;;;;;;;;;;26.00;61.20;;;;;;4859585;29;19983;-96
2022/09/01 08:55:42;;;;;;;;;;;26.20;57.00;;;;;;4875731;29;19944;-96
2022/09/01 08:58:09;;;;;;;;;;;26.30;55.60;;;;;;4861222;29;19944;-96
2022/09/01 09:00:44;;;;;;;;;;;26.60;55.90;;;;;;4862269;29;19954;-96
2022/09/01 09:03:16;;;;;;;;;;;26.70;55.60;;;;;;4862172;29;19945;-96
2022/09/01 09:05:56;;;;;;;;;;;26.80;54.50;;;;;;4859649;29;19990;-96
2022/09/01 09:08:38;;;;;;;;;;;26.80;54.60;;;;;;4858070;29;19953;-96
2022/09/01 09:11:11;;;;;;;;;;;26.70;53.80;;;;;;4872023;29;20032;-96
2022/09/01 09:13:43;;;;;;;;;;;26.60;55.50;;;;;;4865340;29;20409;-96
2022/09/01 09:16:14;;;;;;;;;;;26.70;54.70;;;;;;4863253;29;19963;-96
2022/09/01 09:18:52;;;;;;;;;;;26.80;55.50;;;;;;4877965;29;20023;-96
2022/09/01 09:21:27;;;;;;;;;;;26.80;54.90;;;;;;4861753;29;19954;-96
2022/09/01 09:23:56;;;;;;;;;;;26.80;55.30;;;;;;4862814;29;19984;-96
2022/09/01 09:26:26;;;;;;;;;;;26.90;55.10;;;;;;4866889;29;20079;-96
2022/09/01 09:28:54;;;;;;;;;;;27.20;54.70;;;;;;4864638;29;19939;-96
2022/09/01 09:31:29;;;;;;;;;;;27.30;53.90;;;;;;4863400;29;19953;-96
2022/09/01 09:33:56;;;;;;;;;;;27.50;53.60;;;;;;4879280;29;19944;-96
2022/09/01 09:36:29;;;;;;;;;;;27.60;52.70;;;;;;4865714;29;19967;-96
2022/09/01 09:39:02;;;;;;;;;;;27.70;52.50;;;;;;4879300;29;19955;-96
2022/09/01 09:41:28;;;;;;;;;;;27.60;52.00;;;;;;4864106;29;19978;-96
2022/09/01 09:44:05;;;;;;;;;;;27.60;51.80;;;;;;4864586;29;20013;-96
2022/09/01 09:46:43;;;;;;;;;;;27.40;53.60;;;;;;4863834;29;19951;-96
2022/09/01 09:49:09;;;;;;;;;;;27.50;52.80;;;;;;4864527;29;19932;-96
2022/09/01 09:51:40;;;;;;;;;;;27.70;51.90;;;;;;4864319;29;19988;-96
2022/09/01 09:54:12;;;;;;;;;;;27.80;52.00;;;;;;4849590;29;19951;-96
2022/09/01 09:56:40;;;;;;;;;;;27.90;51.60;;;;;;4863819;29;19972;-96
2022/09/01 09:59:22;;;;;;;;;;;28.00;52.10;;;;;;4863160;29;19976;-96
2022/09/01 10:01:52;;;;;;;;;;;28.10;51.80;;;;;;4859228;29;19949;-96
2022/09/01 10:04:38;;;;;;;;;;;28.20;51.20;;;;;;4863160;29;19952;-96
2022/09/01 10:07:31;;;;;;;;;;;28.10;52.20;;;;;;4861071;29;19991;-96
2022/09/01 10:09:59;;;;;;;;;;;27.80;51.50;;;;;;4864083;29;19948;-96
2022/09/01 10:12:26;;;;;;;;;;;27.70;52.30;;;;;;4879988;29;19946;-96
2022/09/01 10:15:05;;;;;;;;;;;28.00;52.50;;;;;;4882029;29;19957;-96
2022/09/01 10:17:39;;;;;;;;;;;27.90;52.70;;;;;;4865478;29;19963;-96
2022/09/01 10:20:17;;;;;;;;;;;27.80;52.80;;;;;;4867147;29;19955;-96
2022/09/01 10:22:45;;;;;;;;;;;27.90;50.90;;;;;;4866315;29;19939;-96
2022/09/01 10:25:43;;;;;;;;;;;28.00;51.60;;;;;;4867036;29;19928;-96
2022/09/01 10:28:40;;;;;;;;;;;28.20;53.90;;;;;;4867365;29;19934;-96
2022/09/01 10:31:09;;;;;;;;;;;28.30;52.10;;;;;;4866762;29;19936;-96
2022/09/01 10:33:40;;;;;;;;;;;28.50;51.10;;;;;;4883843;29;19949;-96
2022/09/01 10:36:23;;;;;;;;;;;28.30;51.50;;;;;;4882497;29;19967;-96
2022/09/01 10:38:52;;;;;;;;;;;28.70;51.80;;;;;;4867786;29;19951;-96
2022/09/01 10:41:37;;;;;;;;;;;28.80;50.60;;;;;;4867472;29;19943;-96
2022/09/01 10:44:32;;;;;;;;;;;29.00;50.50;;;;;;4869958;29;20021;-96
2022/09/01 10:47:08;;;;;;;;;;;28.70;49.80;;;;;;4847196;29;19949;-96
2022/09/01 10:49:50;;;;;;;;;;;29.00;49.60;;;;;;4849521;29;20040;-96
2022/09/01 10:52:43;;;;;;;;;;;29.10;49.20;;;;;;4834093;29;19978;-96
2022/09/01 10:55:17;;;;;;;;;;;29.50;48.50;;;;;;4821458;29;19934;-96
2022/09/01 10:57:54;;;;;;;;;;;29.40;47.70;;;;;;4847483;29;19953;-96
2022/09/01 11:00:24;;;;;;;;;;;29.40;46.90;;;;;;4848500;29;19935;-96
2022/09/01 11:03:09;;;;;;;;;;;29.30;46.40;;;;;;4829414;29;19944;-96
2022/09/01 11:05:54;;;;;;;;;;;29.00;45.30;;;;;;4832353;29;19945;-96
2022/09/01 11:08:25;;;;;;;;;;;29.20;46.30;;;;;;4831925;29;19986;-96
2022/09/01 11:11:11;;;;;;;;;;;29.40;45.30;;;;;;4833041;29;19956;-96
2022/09/01 11:13:53;;;;;;;;;;;29.60;44.70;;;;;;4833041;29;19942;-96
2022/09/01 11:16:36;;;;;;;;;;;29.60;46.70;;;;;;4831842;29;19961;-96
2022/09/01 11:19:29;;;;;;;;;;;29.60;46.10;;;;;;4868441;29;19966;-96
2022/09/01 11:22:19;;;;;;;;;;;29.40;44.30;;;;;;4884714;29;19952;-96
2022/09/01 11:24:47;;;;;;;;;;;28.80;47.10;;;;;;4869687;29;19949;-96
2022/09/01 11:27:55;;;;;;;;;;;28.60;48.30;;;;;;4886240;29;19965;-96
2022/09/01 11:30:31;;;;;;;;;;;28.60;47.30;;;;;;4814425;29;19948;-96
2022/09/01 11:33:12;;;;;;;;;;;28.50;47.90;;;;;;4877968;29;20005;-96
2022/09/01 11:35:38;;;;;;;;;;;28.30;48.90;;;;;;4854875;29;19953;-96
2022/09/01 11:38:17;;;;;;;;;;;28.30;49.40;;;;;;4885241;29;19954;-96
2022/09/01 11:41:07;;;;;;;;;;;28.30;47.90;;;;;;4870413;29;19935;-96
2022/09/01 11:43:42;;;;;;;;;;;28.40;48.90;;;;;;4869046;29;19947;-96
2022/09/01 11:46:35;;;;;;;;;;;28.60;48.10;;;;;;4852521;29;20002;-96
2022/09/01 11:49:23;;;;;;;;;;;28.70;48.80;;;;;;4884191;29;19975;-96
2022/09/01 11:51:57;;;;;;;;;;;28.80;48.20;;;;;;4876861;29;19978;-96
2022/09/01 11:54:47;;;;;;;;;;;29.20;49.00;;;;;;4869968;29;19941;-96
2022/09/01 11:57:33;;;;;;;;;;;29.70;46.30;;;;;;4883629;29;19975;-96
2022/09/01 12:00:14;;;;;;;;;;;29.90;47.30;;;;;;4886000;29;19999;-96
2022/09/01 12:02:53;;;;;;;;;;;30.50;45.70;;;;;;4875671;29;19946;-96
2022/09/01 12:08:52;;;;;;;;;;;31.20;41.90;;;;;;5628832;23;19987;-96
2022/09/01 14:37:31;;;;;;;;;;;28.50;46.30;;;;;;5793399;24;19975;-96
2022/09/01 15:25:55;;;;;;;;;;;27.60;45.10;;;;;;5709221;24;20023;-96
2022/09/01 15:28:25;;;;;;;;;;;27.50;45.40;;;;;;4845313;29;19946;-96
2022/09/01 15:30:52;;;;;;;;;;;27.40;45.20;;;;;;4848706;29;19935;-96
2022/09/01 15:33:19;;;;;;;;;;;27.40;45.00;;;;;;4848584;29;19936;-96
2022/09/01 15:35:52;;;;;;;;;;;27.20;45.60;;;;;;4847058;29;19980;-96
2022/09/01 15:38:24;;;;;;;;;;;27.00;45.80;;;;;;4848440;29;19948;-97
2022/09/01 15:40:57;;;;;;;;;;;26.90;46.20;;;;;;4850304;29;19944;-96
2022/09/01 15:43:33;;;;;;;;;;;26.70;46.40;;;;;;4851411;29;19974;-96
2022/09/01 15:46:07;;;;;;;;;;;26.70;46.20;;;;;;4850141;29;19959;-96
2022/09/01 15:48:37;;;;;;;;;;;26.60;46.50;;;;;;4852023;29;19951;-96
2022/09/01 15:51:19;;;;;;;;;;;26.50;46.30;;;;;;4851014;29;19943;-96
